Time;durP1;ratioP1;P1;durP2;ratioP2;P2;SDS_P1;SDS_P2;PMS_P1;PMS_P2;Temp;Humidity;BMP_temperature;BMP_pressure;BME280_temperature;BME280_humidity;BME280_pressure;Samples;Min_cycle;Max_cycle;Signal;HPM_P1;HPM_P2
2022/07/18 00:02:08;;;;;;;2.80;2.03;;;26.70;54.60;;;;;;6183931;23;20387;-76
2022/07/18 00:04:34;;;;;;;4.23;2.03;;;26.70;54.60;;;;;;6182292;23;20372;-76
2022/07/18 00:07:01;;;;;;;2.63;2.07;;;26.70;54.70;;;;;;6183679;23;20412;-76
2022/07/18 00:09:29;;;;;;;3.37;2.23;;;26.70;54.70;;;;;;6183572;23;20406;-76
2022/07/18 00:11:55;;;;;;;2.50;2.20;;;26.60;54.70;;;;;;6182299;23;20452;-76
2022/07/18 00:14:24;;;;;;;4.20;2.33;;;26.60;54.70;;;;;;6182037;23;20411;-76
2022/07/18 00:16:52;;;;;;;2.23;1.73;;;26.60;54.80;;;;;;6183657;23;20772;-75
2022/07/18 00:19:18;;;;;;;2.67;1.93;;;26.60;54.80;;;;;;6156699;23;20435;-76
2022/07/18 00:21:45;;;;;;;3.97;2.20;;;26.50;54.70;;;;;;6183751;23;20711;-76
2022/07/18 00:24:14;;;;;;;2.23;2.00;;;26.50;54.80;;;;;;6157431;23;20388;-76
2022/07/18 00:26:42;;;;;;;2.23;2.03;;;26.50;54.80;;;;;;6182188;23;20400;-76
2022/07/18 00:29:08;;;;;;;2.10;1.90;;;26.50;54.80;;;;;;6182109;23;20400;-76
2022/07/18 00:31:38;;;;;;;2.30;2.10;;;26.50;54.90;;;;;;6183627;23;20356;-75
2022/07/18 00:34:04;;;;;;;3.20;2.00;;;26.40;54.80;;;;;;6183277;23;20371;-76
2022/07/18 00:36:31;;;;;;;2.67;2.17;;;26.40;54.90;;;;;;6180127;23;20505;-76
2022/07/18 00:38:58;;;;;;;2.50;1.70;;;26.40;54.90;;;;;;6156824;23;20423;-76
2022/07/18 00:41:26;;;;;;;2.40;1.97;;;26.40;54.90;;;;;;6182347;23;20372;-75
2022/07/18 00:43:59;;;;;;;2.03;1.83;;;26.40;55.00;;;;;;6183218;23;20471;-76
2022/07/18 00:46:27;;;;;;;2.90;2.03;;;26.40;55.00;;;;;;6181926;23;20874;-75
2022/07/18 00:48:53;;;;;;;4.60;2.40;;;26.30;55.00;;;;;;6156782;23;20391;-75
2022/07/18 00:51:24;;;;;;;2.27;1.97;;;26.30;55.00;;;;;;6183416;23;20890;-76
2022/07/18 00:53:50;;;;;;;3.03;2.20;;;26.30;55.60;;;;;;6207125;23;20867;-76
2022/07/18 00:56:19;;;;;;;3.70;2.13;;;26.30;55.00;;;;;;6183739;23;20384;-76
2022/07/18 00:58:50;;;;;;;2.63;2.27;;;26.20;55.00;;;;;;6206683;23;20431;-76
2022/07/18 01:04:03;;;;;;;2.23;1.93;;;26.20;55.10;;;;;;6157027;23;20883;-76
2022/07/18 01:06:29;;;;;;;2.10;1.90;;;26.20;55.10;;;;;;6182053;23;20587;-76
2022/07/18 01:08:57;;;;;;;2.80;2.20;;;26.20;55.10;;;;;;6184838;23;20396;-76
2022/07/18 01:11:26;;;;;;;2.50;2.10;;;26.10;55.10;;;;;;6208765;23;20383;-75
2022/07/18 01:13:55;;;;;;;3.47;2.27;;;26.10;55.10;;;;;;6185358;23;20412;-76
2022/07/18 01:16:24;;;;;;;2.70;2.00;;;26.10;55.20;;;;;;6208910;23;20483;-76
2022/07/18 01:18:53;;;;;;;2.87;2.10;;;26.10;55.20;;;;;;6208566;23;20910;-76
2022/07/18 01:21:19;;;;;;;2.70;2.13;;;26.10;55.30;;;;;;6183847;23;20496;-75
2022/07/18 01:23:45;;;;;;;6.73;2.70;;;26.10;55.30;;;;;;6185112;23;20364;-76
2022/07/18 01:26:13;;;;;;;3.23;2.20;;;26.00;55.30;;;;;;6183610;23;20370;-75
2022/07/18 01:28:43;;;;;;;2.63;2.10;;;26.00;55.30;;;;;;6182989;23;20997;-76
2022/07/18 01:31:09;;;;;;;3.70;2.20;;;26.00;55.20;;;;;;6158669;23;20450;-76
2022/07/18 01:33:36;;;;;;;3.03;2.00;;;26.00;55.30;;;;;;6183882;23;20375;-76
2022/07/18 01:36:08;;;;;;;2.73;2.17;;;26.00;55.30;;;;;;6184864;23;20385;-76
2022/07/18 01:38:36;;;;;;;2.50;1.70;;;25.90;55.30;;;;;;6184475;23;20436;-76
2022/07/18 01:41:04;;;;;;;2.60;2.00;;;25.90;55.90;;;;;;6208518;23;20412;-76
2022/07/18 01:43:33;;;;;;;2.30;1.70;;;25.90;55.40;;;;;;6185107;23;20419;-76
2022/07/18 01:46:02;;;;;;;3.10;2.13;;;25.90;55.40;;;;;;6134648;23;20766;-76
2022/07/18 01:48:28;;;;;;;3.13;1.87;;;25.90;55.40;;;;;;6183340;23;20387;-76
2022/07/18 01:50:54;;;;;;;2.43;1.93;;;25.80;55.40;;;;;;6183032;23;20411;-75
2022/07/18 01:53:21;;;;;;;3.30;2.17;;;25.80;55.40;;;;;;6185088;23;20404;-76
2022/07/18 01:55:47;;;;;;;2.50;2.30;;;25.80;55.40;;;;;;6208758;23;20391;-76
2022/07/18 01:58:15;;;;;;;3.83;1.90;;;25.80;55.50;;;;;;6184896;23;20457;-75
2022/07/18 02:00:41;;;;;;;4.47;2.47;;;25.80;55.50;;;;;;6208405;23;20931;-76
2022/07/18 02:03:10;;;;;;;2.90;2.50;;;25.80;55.50;;;;;;6183552;23;20387;-76
2022/07/18 02:05:38;;;;;;;2.63;2.27;;;25.70;55.50;;;;;;6184798;23;20446;-75
2022/07/18 02:08:09;;;;;;;2.50;2.10;;;25.70;55.50;;;;;;6158621;23;20395;-76
2022/07/18 02:10:43;;;;;;;2.23;1.83;;;25.70;55.60;;;;;;6183579;23;20923;-76
2022/07/18 02:13:09;;;;;;;2.60;1.80;;;25.60;55.50;;;;;;6183477;23;20371;-75
2022/07/18 02:15:37;;;;;;;2.90;2.13;;;25.60;55.50;;;;;;6183244;23;20163;-76
2022/07/18 02:18:04;;;;;;;2.50;2.10;;;25.60;55.60;;;;;;6184566;23;20399;-75
2022/07/18 02:20:32;;;;;;;2.13;1.97;;;25.60;55.60;;;;;;6182952;23;20400;-76
2022/07/18 02:22:58;;;;;;;2.70;2.10;;;25.60;55.60;;;;;;6183475;23;20447;-76
2022/07/18 02:25:25;;;;;;;2.47;2.03;;;25.60;55.60;;;;;;6184808;23;20402;-76
2022/07/18 02:27:54;;;;;;;2.70;2.00;;;25.60;55.60;;;;;;6208088;23;20407;-76
2022/07/18 02:30:23;;;;;;;2.33;2.07;;;25.50;55.60;;;;;;6158386;23;20418;-76
2022/07/18 02:32:55;;;;;;;2.47;2.03;;;25.50;55.60;;;;;;6184748;23;20387;-75
2022/07/18 02:35:21;;;;;;;2.33;1.80;;;25.50;55.70;;;;;;6184733;23;20733;-76
2022/07/18 02:37:49;;;;;;;2.40;1.93;;;25.50;55.70;;;;;;6184303;23;20434;-76
2022/07/18 02:40:21;;;;;;;2.03;1.83;;;25.40;55.60;;;;;;6208091;23;20478;-76
2022/07/18 02:42:49;;;;;;;2.50;1.97;;;25.40;55.60;;;;;;6158049;23;20392;-76
2022/07/18 02:45:15;;;;;;;2.57;1.77;;;25.40;55.60;;;;;;6158011;23;20378;-76
2022/07/18 02:47:43;;;;;;;2.67;2.00;;;25.40;55.60;;;;;;6158387;23;20392;-76
2022/07/18 02:50:11;;;;;;;2.30;1.80;;;25.40;55.60;;;;;;6183096;23;20412;-76
2022/07/18 02:52:38;;;;;;;2.67;1.87;;;25.40;55.60;;;;;;6183086;23;20380;-76
2022/07/18 02:55:05;;;;;;;3.00;2.00;;;25.30;55.60;;;;;;6158454;23;20498;-76
2022/07/18 02:57:31;;;;;;;2.40;1.80;;;25.30;56.10;;;;;;6182065;23;20408;-75
2022/07/18 03:00:00;;;;;;;2.93;2.40;;;25.30;55.60;;;;;;6207786;23;20412;-76
2022/07/18 03:02:28;;;;;;;2.10;1.90;;;25.30;55.60;;;;;;6158110;23;20901;-75
2022/07/18 03:04:54;;;;;;;1.70;1.60;;;25.30;55.60;;;;;;6184365;23;20360;-76
2022/07/18 03:07:23;;;;;;;2.50;1.63;;;25.20;55.60;;;;;;6182762;23;20404;-76
2022/07/18 03:09:50;;;;;;;3.27;1.80;;;25.20;55.60;;;;;;6157868;23;20424;-76
2022/07/18 03:12:17;;;;;;;2.90;2.03;;;25.20;55.60;;;;;;6182669;23;20447;-76
2022/07/18 03:14:46;;;;;;;2.50;2.03;;;25.20;55.60;;;;;;6184207;23;20406;-76
2022/07/18 03:17:12;;;;;;;3.57;2.23;;;25.20;55.60;;;;;;6182395;23;20415;-76
2022/07/18 03:19:40;;;;;;;1.90;1.70;;;25.10;55.50;;;;;;6158309;23;20416;-76
2022/07/18 03:22:09;;;;;;;1.80;1.70;;;25.10;55.50;;;;;;6184392;23;20701;-76
2022/07/18 03:24:38;;;;;;;1.73;1.63;;;25.10;55.60;;;;;;6157689;23;20386;-75
2022/07/18 03:27:04;;;;;;;2.63;1.60;;;25.10;55.60;;;;;;6182465;23;20454;-76
2022/07/18 03:29:29;;;;;;;1.97;1.83;;;25.00;55.50;;;;;;6182512;23;20419;-76
2022/07/18 03:31:58;;;;;;;2.53;1.90;;;25.00;55.60;;;;;;6182221;23;20856;-76
2022/07/18 03:34:24;;;;;;;4.40;1.80;;;25.00;56.10;;;;;;6157811;23;20156;-76
2022/07/18 03:36:50;;;;;;;2.63;2.20;;;25.00;55.60;;;;;;6182489;23;20543;-75
2022/07/18 03:39:16;;;;;;;3.57;2.00;;;25.00;55.70;;;;;;6183442;23;20404;-75
2022/07/18 03:41:44;;;;;;;2.60;1.83;;;25.00;55.70;;;;;;6184079;23;20834;-75
2022/07/18 03:44:10;;;;;;;1.90;1.70;;;24.90;55.60;;;;;;6207557;23;20408;-75
2022/07/18 03:46:39;;;;;;;2.40;1.43;;;24.90;55.60;;;;;;6157823;23;20396;-75
2022/07/18 03:49:07;;;;;;;2.87;1.80;;;24.90;55.70;;;;;;6206945;23;20442;-75
2022/07/18 03:51:33;;;;;;;2.30;1.70;;;24.90;55.70;;;;;;6207286;23;20388;-75
2022/07/18 03:54:01;;;;;;;2.00;1.80;;;24.90;55.70;;;;;;6182409;23;20426;-75
2022/07/18 03:56:27;;;;;;;3.10;1.70;;;24.90;55.70;;;;;;6183993;23;20439;-75
2022/07/18 03:58:54;;;;;;;2.30;2.10;;;24.80;55.70;;;;;;6182364;23;21077;-75
2022/07/18 04:01:19;;;;;;;2.40;1.93;;;24.80;55.70;;;;;;6156095;23;20424;-75
2022/07/18 04:03:48;;;;;;;2.00;1.80;;;24.80;55.80;;;;;;6157653;23;20446;-75
2022/07/18 04:06:14;;;;;;;2.63;1.60;;;24.80;55.80;;;;;;6157396;23;20396;-75
2022/07/18 04:08:40;;;;;;;3.33;2.13;;;24.70;55.70;;;;;;6207215;23;20388;-75
2022/07/18 04:11:09;;;;;;;3.20;1.70;;;24.70;55.80;;;;;;6207440;23;20420;-75
2022/07/18 04:13:37;;;;;;;2.70;1.90;;;24.70;55.80;;;;;;6207096;23;21036;-75
2022/07/18 04:16:08;;;;;;;3.43;1.77;;;24.70;55.80;;;;;;6182328;23;20431;-75
2022/07/18 04:18:34;;;;;;;2.53;2.00;;;24.70;55.80;;;;;;6206860;23;20503;-75
2022/07/18 04:21:00;;;;;;;2.33;1.97;;;24.70;55.90;;;;;;6207088;23;21203;-75
2022/07/18 04:23:31;;;;;;;3.00;1.90;;;24.60;55.80;;;;;;6157642;23;20763;-75
2022/07/18 04:26:03;;;;;;;3.43;1.87;;;24.60;55.90;;;;;;6183813;23;20443;-75
2022/07/18 04:28:30;;;;;;;2.00;1.80;;;24.60;55.90;;;;;;6207434;23;20453;-75
2022/07/18 04:30:56;;;;;;;2.60;1.93;;;24.60;55.90;;;;;;6132494;23;20416;-75
2022/07/18 04:33:27;;;;;;;2.00;1.77;;;24.50;55.90;;;;;;6183518;23;20380;-75
2022/07/18 04:35:53;;;;;;;2.90;1.87;;;24.50;55.90;;;;;;6157039;23;20420;-77
2022/07/18 04:38:19;;;;;;;3.70;2.50;;;24.50;55.90;;;;;;6182301;23;20491;-75
2022/07/18 04:40:45;;;;;;;2.20;1.77;;;24.50;55.90;;;;;;6182245;23;20443;-75
2022/07/18 04:43:11;;;;;;;2.03;1.80;;;24.50;56.00;;;;;;6184495;23;20735;-75
2022/07/18 04:45:37;;;;;;;2.70;2.07;;;24.50;56.00;;;;;;6159325;23;20404;-75
2022/07/18 04:48:05;;;;;;;3.13;2.03;;;24.50;56.10;;;;;;6158861;23;20490;-75
2022/07/18 04:50:33;;;;;;;2.90;1.80;;;24.40;56.50;;;;;;6185704;23;20392;-75
2022/07/18 04:52:59;;;;;;;2.47;1.90;;;24.40;56.00;;;;;;6159467;23;20460;-75
2022/07/18 04:55:30;;;;;;;2.10;1.90;;;24.40;56.00;;;;;;6185716;23;20378;-75
2022/07/18 04:57:58;;;;;;;3.60;2.00;;;24.40;56.10;;;;;;6159195;23;20435;-75
2022/07/18 05:00:26;;;;;;;3.40;1.93;;;24.40;56.10;;;;;;6208819;23;20416;-75
2022/07/18 05:02:56;;;;;;;2.60;1.53;;;24.40;56.10;;;;;;6134542;23;20395;-75
2022/07/18 05:05:23;;;;;;;2.43;1.87;;;24.40;56.20;;;;;;6208873;23;20391;-75
2022/07/18 05:07:50;;;;;;;3.50;1.90;;;24.40;56.20;;;;;;6185397;23;20404;-75
2022/07/18 05:10:20;;;;;;;3.80;2.50;;;24.30;56.20;;;;;;6183870;23;20407;-75
2022/07/18 05:12:49;;;;;;;2.60;2.07;;;24.30;56.20;;;;;;6158982;23;20423;-75
2022/07/18 05:15:35;;;;;;;5.10;2.10;;;24.30;56.20;;;;;;6154860;23;20408;-75
2022/07/18 05:18:05;;;;;;;2.23;2.03;;;24.30;56.30;;;;;;6158750;23;20424;-75
2022/07/18 05:20:31;;;;;;;4.00;2.23;;;24.30;56.30;;;;;;6158907;23;20447;-75
2022/07/18 05:22:57;;;;;;;2.50;1.93;;;24.20;56.30;;;;;;6134490;23;20380;-75
2022/07/18 05:25:25;;;;;;;3.73;1.83;;;24.20;56.30;;;;;;6183580;23;20361;-75
2022/07/18 05:27:52;;;;;;;2.00;1.77;;;24.20;56.30;;;;;;6183473;23;20851;-74
2022/07/18 05:30:29;;;;;;;3.63;1.97;;;24.20;56.30;;;;;;6185847;23;20410;-75
2022/07/18 05:32:58;;;;;;;2.30;1.80;;;24.20;56.40;;;;;;6184190;23;20963;-76
2022/07/18 05:35:24;;;;;;;2.67;2.23;;;24.20;56.50;;;;;;6185545;23;20376;-75
2022/07/18 05:37:52;;;;;;;2.80;2.27;;;24.20;56.50;;;;;;6182154;23;20416;-75
2022/07/18 05:40:18;;;;;;;4.50;1.60;;;24.20;56.50;;;;;;6183556;23;20402;-74
2022/07/18 05:42:45;;;;;;;3.37;1.90;;;24.20;56.60;;;;;;6132099;23;20420;-75
2022/07/18 05:45:16;;;;;;;2.70;2.10;;;24.20;56.60;;;;;;6183894;23;20376;-75
2022/07/18 05:47:42;;;;;;;1.80;1.70;;;24.20;56.70;;;;;;6185017;23;20688;-75
2022/07/18 05:50:09;;;;;;;2.07;1.63;;;24.20;56.80;;;;;;6183305;23;20469;-74
2022/07/18 05:52:35;;;;;;;2.13;1.50;;;24.20;56.80;;;;;;6182722;23;20400;-75
2022/07/18 05:55:04;;;;;;;1.77;1.67;;;24.10;56.70;;;;;;6207783;23;20779;-74
2022/07/18 05:57:30;;;;;;;2.33;1.80;;;24.20;56.80;;;;;;6184872;23;20412;-74
2022/07/18 05:59:56;;;;;;;2.77;1.73;;;24.10;56.80;;;;;;6183258;23;20440;-75
2022/07/18 06:02:23;;;;;;;1.73;1.63;;;24.10;56.80;;;;;;6182934;23;20427;-74
2022/07/18 06:04:54;;;;;;;2.00;1.40;;;24.10;56.80;;;;;;6158444;23;20391;-74
2022/07/18 06:07:20;;;;;;;2.33;1.50;;;24.10;56.80;;;;;;6157865;23;20491;-74
2022/07/18 06:09:48;;;;;;;1.90;1.70;;;24.10;56.80;;;;;;6182783;23;20415;-74
2022/07/18 06:12:18;;;;;;;1.93;1.47;;;24.10;56.80;;;;;;6184771;23;20578;-75
2022/07/18 06:14:46;;;;;;;2.73;1.77;;;24.10;56.80;;;;;;6208925;23;20490;-74
2022/07/18 06:17:14;;;;;;;1.50;1.40;;;24.10;56.80;;;;;;6183599;23;20416;-74
2022/07/18 06:19:42;;;;;;;3.10;1.97;;;24.10;56.80;;;;;;6184352;23;20408;-74
2022/07/18 06:22:11;;;;;;;2.00;1.77;;;24.10;56.80;;;;;;6182774;23;20483;-74
2022/07/18 06:24:39;;;;;;;2.00;1.40;;;24.10;56.80;;;;;;6207478;23;20891;-74
2022/07/18 06:27:07;;;;;;;2.13;1.93;;;24.10;56.80;;;;;;6157639;23;20383;-74
2022/07/18 06:29:35;;;;;;;2.07;1.40;;;24.10;56.80;;;;;;6182531;23;20586;-74
2022/07/18 06:32:01;;;;;;;1.53;1.43;;;24.10;57.30;;;;;;6207819;23;20388;-74
2022/07/18 06:34:27;;;;;;;1.83;1.57;;;24.10;56.80;;;;;;6157891;23;20387;-76
2022/07/18 06:36:53;;;;;;;2.50;1.70;;;24.10;56.70;;;;;;6206581;23;20411;-74
2022/07/18 06:39:19;;;;;;;2.27;2.07;;;24.10;56.70;;;;;;6157835;23;20814;-75
2022/07/18 06:41:45;;;;;;;3.10;2.20;;;24.10;56.70;;;;;;6207881;23;20474;-75
2022/07/18 06:44:13;;;;;;;2.10;2.00;;;24.10;56.60;;;;;;6157757;23;20400;-75
2022/07/18 06:46:52;;;;;;;2.37;1.73;;;24.10;56.60;;;;;;6183804;23;20384;-75
2022/07/18 06:49:22;;;;;;;2.67;1.90;;;24.10;56.50;;;;;;6184211;23;20396;-75
2022/07/18 06:51:49;;;;;;;2.50;1.77;;;24.10;56.50;;;;;;6158040;23;20431;-75
2022/07/18 06:54:15;;;;;;;2.90;2.07;;;24.10;56.40;;;;;;6184346;23;20447;-75
2022/07/18 06:56:43;;;;;;;1.90;1.40;;;24.10;56.30;;;;;;6184021;23;20364;-75
2022/07/18 06:59:10;;;;;;;1.83;1.70;;;24.10;56.30;;;;;;6207214;23;20743;-75
2022/07/18 07:01:38;;;;;;;2.30;1.67;;;24.10;56.30;;;;;;6207133;23;20855;-75
2022/07/18 07:04:07;;;;;;;1.80;1.70;;;24.10;56.20;;;;;;6207863;23;20384;-75
2022/07/18 07:06:33;;;;;;;3.77;1.43;;;24.10;56.20;;;;;;6182665;23;20368;-75
2022/07/18 07:08:59;;;;;;;2.23;1.63;;;24.10;56.10;;;;;;6182636;23;20371;-75
2022/07/18 07:11:25;;;;;;;2.83;2.00;;;24.10;56.10;;;;;;6184067;23;20365;-75
2022/07/18 07:13:53;;;;;;;1.87;1.30;;;24.10;56.00;;;;;;6157517;23;20427;-75
2022/07/18 07:16:19;;;;;;;1.80;1.40;;;24.20;56.60;;;;;;6182640;23;20717;-75
2022/07/18 07:18:48;;;;;;;1.93;1.60;;;24.20;56.00;;;;;;6183794;23;20412;-75
2022/07/18 07:21:14;;;;;;;3.47;2.07;;;24.20;55.90;;;;;;6182217;23;20458;-75
2022/07/18 07:23:43;;;;;;;2.10;1.60;;;24.20;55.70;;;;;;6182776;23;20357;-74
2022/07/18 07:26:09;;;;;;;2.07;1.87;;;24.20;55.70;;;;;;6179300;23;20448;-73
2022/07/18 07:28:35;;;;;;;1.67;1.40;;;24.20;55.70;;;;;;6181937;23;20392;-74
2022/07/18 07:31:06;;;;;;;2.57;1.50;;;24.20;55.70;;;;;;6183468;23;20913;-71
2022/07/18 07:33:34;;;;;;;2.63;1.73;;;24.20;55.60;;;;;;6184069;23;20395;-73
2022/07/18 07:36:03;;;;;;;2.40;2.10;;;24.20;55.60;;;;;;6133167;23;20487;-73
2022/07/18 07:38:29;;;;;;;2.70;1.70;;;24.30;55.60;;;;;;6183925;23;20404;-73
2022/07/18 07:41:01;;;;;;;1.70;1.60;;;24.30;55.60;;;;;;6182489;23;20400;-73
2022/07/18 07:43:27;;;;;;;2.00;1.43;;;24.30;55.50;;;;;;6183173;23;20403;-72
2022/07/18 07:45:56;;;;;;;1.90;1.70;;;24.30;55.50;;;;;;6157449;23;20400;-73
2022/07/18 07:48:22;;;;;;;2.20;1.60;;;24.30;55.40;;;;;;6157366;23;20364;-73
2022/07/18 07:50:53;;;;;;;2.50;1.43;;;24.30;55.40;;;;;;6183666;23;20473;-73
2022/07/18 07:53:19;;;;;;;2.73;1.43;;;24.40;55.40;;;;;;6181726;23;20384;-73
2022/07/18 07:55:46;;;;;;;2.00;1.77;;;24.40;55.40;;;;;;6182043;23;20379;-73
2022/07/18 07:58:14;;;;;;;3.10;2.00;;;24.40;55.40;;;;;;6181640;23;20751;-73
2022/07/18 08:00:40;;;;;;;2.60;1.77;;;24.40;55.40;;;;;;6181917;23;20396;-73
2022/07/18 08:03:10;;;;;;;4.97;1.67;;;24.40;55.40;;;;;;6183684;23;20400;-73
2022/07/18 08:05:51;;;;;;;2.70;1.80;;;24.40;55.40;;;;;;6182342;23;20363;-73
2022/07/18 08:08:20;;;;;;;1.60;1.50;;;24.50;55.50;;;;;;6157266;23;20387;-73
2022/07/18 08:10:47;;;;;;;1.70;1.47;;;24.50;55.50;;;;;;6181789;23;20458;-73
2022/07/18 08:13:16;;;;;;;2.10;1.70;;;24.50;55.50;;;;;;6156575;23;20388;-73
2022/07/18 08:15:47;;;;;;;1.83;1.70;;;24.50;55.50;;;;;;6157090;23;20873;-73
2022/07/18 08:18:13;;;;;;;2.07;1.80;;;24.50;55.50;;;;;;6185529;23;20407;-73
2022/07/18 08:20:41;;;;;;;1.50;1.40;;;24.60;55.60;;;;;;6186954;23;20431;-73
2022/07/18 08:23:10;;;;;;;3.30;1.77;;;24.60;55.60;;;;;;6160536;23;20402;-73
2022/07/18 08:25:40;;;;;;;3.27;1.73;;;24.60;55.70;;;;;;6187361;23;20739;-73
2022/07/18 08:28:07;;;;;;;2.07;1.77;;;24.60;55.70;;;;;;6185340;23;20382;-73
2022/07/18 08:30:35;;;;;;;1.70;1.60;;;24.70;55.70;;;;;;6185524;23;20408;-73
2022/07/18 08:33:04;;;;;;;2.90;1.50;;;24.70;55.70;;;;;;6186992;23;20443;-73
2022/07/18 08:35:33;;;;;;;2.23;1.70;;;24.70;55.70;;;;;;6160508;23;20399;-73
2022/07/18 08:38:03;;;;;;;2.40;2.20;;;24.70;55.70;;;;;;6186770;23;20434;-73
2022/07/18 08:40:37;;;;;;;1.93;1.73;;;24.80;55.80;;;;;;6186917;23;20483;-73
2022/07/18 08:43:07;;;;;;;1.70;1.40;;;24.80;55.80;;;;;;6184748;23;20371;-74
2022/07/18 08:45:34;;;;;;;3.20;2.07;;;24.80;55.80;;;;;;6160532;23;20392;-73
2022/07/18 08:48:02;;;;;;;1.70;1.60;;;24.90;55.90;;;;;;6185109;23;20411;-73
2022/07/18 08:50:28;;;;;;;2.13;1.63;;;24.90;55.90;;;;;;6210000;23;20408;-73
2022/07/18 08:52:56;;;;;;;4.20;1.47;;;24.90;55.90;;;;;;6160523;23;20712;-74
2022/07/18 08:55:22;;;;;;;3.10;1.93;;;24.90;55.80;;;;;;6184824;23;20767;-73
2022/07/18 08:57:52;;;;;;;2.90;2.00;;;25.00;55.80;;;;;;6186242;23;20412;-73
2022/07/18 09:00:18;;;;;;;3.10;1.83;;;25.00;55.70;;;;;;6135497;23;20416;-73
2022/07/18 09:02:55;;;;;;;2.93;1.83;;;25.00;55.70;;;;;;6185243;23;20461;-73
2022/07/18 09:05:21;;;;;;;2.63;1.90;;;25.10;55.60;;;;;;6160652;23;20368;-73
2022/07/18 09:08:08;;;;;;;2.73;1.60;;;25.10;55.60;;;;;;6185194;23;20395;-73
2022/07/18 09:10:55;;;;;;;2.00;1.90;;;25.10;55.50;;;;;;6186689;23;20414;-73
2022/07/18 09:13:33;;;;;;;2.43;1.70;;;25.20;55.60;;;;;;6186838;23;20765;-73
2022/07/18 09:16:03;;;;;;;1.97;1.60;;;25.20;55.60;;;;;;6186760;23;20382;-73
2022/07/18 09:18:40;;;;;;;6.33;2.10;;;25.20;55.60;;;;;;6186653;23;20431;-73
2022/07/18 09:21:09;;;;;;;3.97;1.80;;;25.30;55.60;;;;;;6160199;23;20447;-73
2022/07/18 09:23:41;;;;;;;2.10;1.60;;;25.30;55.60;;;;;;6184892;23;20800;-73
2022/07/18 09:26:09;;;;;;;2.80;1.73;;;25.30;55.50;;;;;;6185112;23;20462;-74
2022/07/18 09:28:54;;;;;;;2.90;1.93;;;25.40;55.60;;;;;;6159945;23;20950;-73
2022/07/18 09:31:22;;;;;;;1.67;1.53;;;25.40;55.50;;;;;;6183329;23;20403;-73
2022/07/18 09:33:58;;;;;;;5.97;2.17;;;25.40;55.40;;;;;;6184759;23;20415;-73
2022/07/18 09:36:24;;;;;;;1.67;1.53;;;25.40;55.30;;;;;;6183942;23;20387;-73
2022/07/18 09:38:54;;;;;;;3.33;1.90;;;25.50;55.20;;;;;;6208898;23;20511;-74
2022/07/18 09:41:30;;;;;;;3.07;2.07;;;25.50;55.20;;;;;;6208176;23;20419;-74
2022/07/18 09:44:16;;;;;;;3.97;1.80;;;25.60;55.20;;;;;;6183187;23;20744;-73
2022/07/18 09:47:07;;;;;;;2.57;1.90;;;25.60;55.10;;;;;;6184592;23;20417;-73
2022/07/18 09:49:40;;;;;;;2.70;2.07;;;25.70;55.00;;;;;;6184271;23;20404;-73
2022/07/18 09:52:11;;;;;;;3.33;2.17;;;25.70;55.00;;;;;;6183465;23;20824;-73
2022/07/18 09:54:43;;;;;;;4.07;2.10;;;25.80;55.00;;;;;;6183253;23;20391;-73
2022/07/18 09:57:24;;;;;;;3.03;1.63;;;25.80;54.70;;;;;;6184782;23;20385;-73
2022/07/18 09:59:51;;;;;;;1.90;1.70;;;25.80;54.70;;;;;;6134087;23;20636;-74
2022/07/18 10:02:17;;;;;;;3.77;1.70;;;25.90;54.20;;;;;;6182119;23;20394;-73
2022/07/18 10:04:49;;;;;;;1.83;1.60;;;25.90;53.90;;;;;;6183234;23;20452;-74
2022/07/18 10:07:17;;;;;;;4.60;1.90;;;25.90;53.90;;;;;;6184621;23;20372;-73
2022/07/18 10:09:45;;;;;;;4.23;2.37;;;26.00;54.70;;;;;;6184638;23;20430;-73
2022/07/18 10:12:17;;;;;;;4.47;2.30;;;26.00;53.90;;;;;;6184983;23;20831;-74
2022/07/18 10:14:44;;;;;;;2.67;1.67;;;26.10;53.80;;;;;;6184846;23;20387;-73
2022/07/18 10:17:15;;;;;;;2.47;2.13;;;26.10;53.80;;;;;;6184595;23;20410;-73
2022/07/18 10:19:41;;;;;;;2.30;2.10;;;26.20;53.70;;;;;;6158178;23;20933;-72
2022/07/18 10:22:10;;;;;;;3.50;1.87;;;26.20;53.50;;;;;;6183262;23;20382;-73
2022/07/18 10:24:43;;;;;;;2.87;2.10;;;26.30;53.60;;;;;;6158335;23;20420;-73
2022/07/18 10:27:14;;;;;;;1.93;1.67;;;26.30;53.40;;;;;;6158522;23;20737;-73
2022/07/18 10:30:09;;;;;;;2.90;2.30;;;26.30;53.40;;;;;;6184137;23;20407;-73
2022/07/18 10:32:35;;;;;;;2.07;1.80;;;26.40;53.40;;;;;;6184478;23;20686;-73
2022/07/18 10:35:03;;;;;;;1.93;1.73;;;26.40;53.40;;;;;;6183314;23;20708;-73
2022/07/18 10:37:35;;;;;;;2.33;2.07;;;26.50;53.40;;;;;;6182888;23;20404;-74
2022/07/18 10:40:24;;;;;;;2.60;1.63;;;26.60;53.30;;;;;;6182829;23;20431;-74
2022/07/18 10:43:29;;;;;;;2.93;2.20;;;26.60;53.00;;;;;;6182856;23;20379;-73
2022/07/18 10:45:56;;;;;;;2.43;1.73;;;26.60;52.80;;;;;;6183312;23;20367;-74
2022/07/18 10:48:35;;;;;;;2.63;1.80;;;26.70;52.50;;;;;;6207964;23;20388;-74
2022/07/18 10:51:18;;;;;;;3.10;1.87;;;26.70;52.50;;;;;;6208009;23;20427;-72
2022/07/18 10:54:01;;;;;;;2.07;1.87;;;26.80;52.50;;;;;;6184694;23;20701;-74
2022/07/18 10:56:35;;;;;;;2.80;1.90;;;26.80;52.30;;;;;;6183240;23;20431;-74
2022/07/18 10:59:22;;;;;;;3.07;2.10;;;26.90;52.20;;;;;;6182612;23;20418;-74
2022/07/18 11:01:57;;;;;;;3.30;2.30;;;27.00;52.20;;;;;;6184141;23;20847;-74
2022/07/18 11:04:32;;;;;;;2.47;1.70;;;27.00;52.20;;;;;;6183100;23;20400;-73
2022/07/18 11:07:10;;;;;;;3.03;2.03;;;27.00;52.20;;;;;;6159150;23;20987;-74
2022/07/18 11:09:50;;;;;;;2.33;1.90;;;27.10;52.30;;;;;;6157727;23;20898;-72
2022/07/18 11:12:33;;;;;;;3.03;2.13;;;27.20;52.20;;;;;;6158704;23;20392;-74
2022/07/18 11:15:03;;;;;;;2.37;2.17;;;27.20;52.20;;;;;;6158135;23;20391;-74
2022/07/18 11:17:51;;;;;;;3.03;1.80;;;27.20;52.10;;;;;;6182820;23;20489;-73
2022/07/18 11:20:33;;;;;;;3.30;1.93;;;27.30;52.20;;;;;;6183838;23;20475;-74
2022/07/18 11:23:02;;;;;;;2.23;2.00;;;27.40;52.20;;;;;;6208110;23;20447;-73
2022/07/18 11:25:29;;;;;;;6.80;2.37;;;27.40;52.10;;;;;;6157873;23;20408;-74
2022/07/18 11:27:56;;;;;;;3.23;2.23;;;27.40;52.00;;;;;;6157973;23;20388;-73
2022/07/18 11:30:26;;;;;;;2.07;1.87;;;27.50;52.00;;;;;;6183289;23;20403;-73
2022/07/18 11:32:52;;;;;;;2.77;2.07;;;27.50;51.80;;;;;;6184017;23;20371;-73
2022/07/18 11:35:23;;;;;;;2.30;2.10;;;27.50;51.60;;;;;;6156870;23;20404;-74
2022/07/18 11:37:51;;;;;;;6.23;2.33;;;27.60;51.50;;;;;;6182420;23;20431;-73
2022/07/18 11:40:22;;;;;;;2.60;2.40;;;27.70;51.20;;;;;;6183921;23;20408;-73
2022/07/18 11:42:49;;;;;;;2.77;1.93;;;27.70;51.30;;;;;;6183850;23;20369;-74
2022/07/18 11:45:16;;;;;;;2.70;2.40;;;27.80;51.10;;;;;;6182438;23;20372;-73
2022/07/18 11:47:52;;;;;;;2.67;2.10;;;27.80;51.20;;;;;;6182440;23;20870;-74
2022/07/18 11:50:34;;;;;;;2.77;2.00;;;27.90;51.30;;;;;;6157708;23;20432;-73
2022/07/18 11:53:03;;;;;;;4.13;2.27;;;27.90;51.00;;;;;;6183238;23;20379;-73
2022/07/18 11:55:40;;;;;;;3.17;2.23;;;27.90;50.70;;;;;;6157489;23;20856;-73
2022/07/18 11:58:18;;;;;;;3.93;2.40;;;28.00;50.70;;;;;;6182407;23;20408;-73
2022/07/18 12:00:47;;;;;;;3.10;2.07;;;28.00;50.50;;;;;;6182428;23;20494;-74
2022/07/18 12:03:22;;;;;;;1.83;1.73;;;28.00;50.50;;;;;;6182314;23;20367;-73
2022/07/18 12:05:51;;;;;;;2.20;2.03;;;28.10;50.70;;;;;;6183665;23;20452;-73
2022/07/18 12:08:31;;;;;;;2.53;1.80;;;28.10;50.90;;;;;;6157725;23;20469;-73
2022/07/18 12:11:10;;;;;;;2.50;2.30;;;28.20;51.10;;;;;;6183678;23;20866;-74
2022/07/18 12:13:48;;;;;;;2.70;2.13;;;28.20;51.10;;;;;;6182281;23;20372;-74
2022/07/18 12:16:29;;;;;;;2.37;2.10;;;28.20;51.10;;;;;;6183720;23;20448;-73
2022/07/18 12:18:58;;;;;;;2.03;1.87;;;28.20;51.20;;;;;;6183468;23;20748;-74
2022/07/18 12:21:39;;;;;;;2.47;2.20;;;28.30;51.30;;;;;;6207346;23;20388;-74
2022/07/18 12:24:36;;;;;;;2.53;2.10;;;28.30;51.00;;;;;;6183900;23;20368;-73
2022/07/18 12:27:33;;;;;;;2.70;1.83;;;28.30;50.90;;;;;;6181824;23;20430;-73
2022/07/18 12:30:14;;;;;;;2.00;1.90;;;28.30;50.90;;;;;;6182409;23;20479;-73
2022/07/18 12:32:53;;;;;;;2.83;2.17;;;28.30;51.20;;;;;;6207113;23;20415;-74
2022/07/18 12:35:21;;;;;;;2.90;2.10;;;28.40;51.10;;;;;;6183680;23;20835;-73
2022/07/18 12:38:03;;;;;;;2.57;2.00;;;28.50;51.10;;;;;;6206133;23;20431;-73
2022/07/18 12:40:41;;;;;;;2.30;2.10;;;28.50;50.70;;;;;;6181781;23;20230;-73
2022/07/18 12:43:21;;;;;;;3.30;2.00;;;28.50;50.80;;;;;;6183676;23;20367;-73
2022/07/18 12:45:47;;;;;;;2.00;1.90;;;28.50;51.10;;;;;;6206964;23;20457;-73
2022/07/18 12:48:17;;;;;;;2.50;2.30;;;28.50;51.20;;;;;;6181904;23;20451;-73
2022/07/18 12:50:44;;;;;;;4.23;1.90;;;28.60;51.30;;;;;;6183576;23;20458;-73
2022/07/18 12:53:13;;;;;;;2.33;1.90;;;28.60;51.20;;;;;;6182130;23;20375;-73
2022/07/18 12:55:42;;;;;;;3.53;1.93;;;28.60;50.90;;;;;;6183492;23;20388;-73
2022/07/18 12:58:08;;;;;;;4.60;2.10;;;28.70;51.20;;;;;;6183325;23;20748;-73
2022/07/18 13:00:36;;;;;;;2.50;2.13;;;28.70;51.10;;;;;;6207044;23;20920;-75
2022/07/18 13:03:03;;;;;;;2.53;2.00;;;28.80;51.20;;;;;;6182265;23;20792;-75
2022/07/18 13:05:30;;;;;;;2.50;2.30;;;28.80;51.30;;;;;;6183801;23;20384;-75